Cato Island, Australia
Current Conditions -  °F | °C
As of 5:00 AM on Monday 24 Nov 2014 (Local Time) from YBUD Reporting Station
Clear Clear  
Wind Chill: 70°   Ceiling: Unl
Heat Index: 70°   Visibility: 6mi
Dew Point: 68°   Wind: 0mph
Humidity: 94%   Direction: NA
Pressure: 30"   Gusts: NA
Location:  23.25°S, 155.53°E
Report Text: YBUD 231900Z AUTO 00000KT 9999 // NCD 21/20 Q1016
Loading
Personal Weather Stations






























Interactive Weather Map New forecast layout! Learn more

10-Day Weather Forecast

Advertisements
Track Severe Weather on mobile